createdAt,value
2022-12-03T02:01:59.675Z,30.36
2022-12-03T02:41:59.559Z,30.37
2022-12-03T03:01:59.548Z,30.35
2022-12-03T03:21:59.542Z,30.36
2022-12-03T03:41:59.536Z,30.35
2022-12-03T04:01:59.521Z,30.35
2022-12-03T04:21:59.538Z,30.35
2022-12-03T04:41:59.515Z,30.34
2022-12-03T05:01:59.596Z,30.35
2022-12-03T05:21:59.487Z,30.37
2022-12-03T05:41:59.218Z,30.36
2022-12-03T06:01:59.637Z,30.35
2022-12-03T06:21:59.479Z,30.34
2022-12-03T06:41:59.491Z,30.3
2022-12-03T07:21:59.464Z,30.28
2022-12-03T07:41:59.458Z,30.28
2022-12-03T08:01:59.484Z,30.27
2022-12-03T08:22:01.369Z,30.27
2022-12-03T08:41:59.438Z,30.27
2022-12-03T09:01:59.441Z,30.28
2022-12-03T09:21:59.458Z,30.4
2022-12-03T09:41:59.399Z,30.45
2022-12-03T10:01:59.509Z,30.43
2022-12-03T10:21:59.406Z,30.45
2022-12-03T10:41:59.396Z,30.44
2022-12-03T11:01:59.456Z,30.32
2022-12-03T11:21:59.097Z,30.33
2022-12-03T11:41:59.092Z,30.42
2022-12-03T12:01:59.352Z,30.39
2022-12-03T12:41:59.366Z,30.4
2022-12-03T13:01:59.339Z,30.41
2022-12-03T13:21:59.323Z,30.42
2022-12-03T13:41:59.310Z,30.41
2022-12-03T14:01:59.426Z,30.41
2022-12-03T14:21:59.311Z,30.42
2022-12-03T14:41:59.293Z,30.42
2022-12-03T15:01:59.460Z,30.42
2022-12-03T15:21:59.272Z,30.39
2022-12-03T15:41:59.306Z,30.4
2022-12-03T16:01:59.339Z,30.4
2022-12-03T16:21:59.257Z,30.41
2022-12-03T16:41:59.254Z,30.4
2022-12-03T17:01:59.268Z,30.28
2022-12-03T17:21:59.255Z,30.27
2022-12-03T17:41:59.236Z,30.27
2022-12-03T18:01:59.255Z,30.28
2022-12-03T18:21:59.230Z,30.27
2022-12-03T18:41:59.237Z,30.27
2022-12-03T19:01:59.263Z,30.43
2022-12-03T19:21:59.208Z,30.3
2022-12-03T19:41:59.198Z,30.24
2022-12-03T20:01:59.372Z,30.36
2022-12-03T20:22:02.477Z,30.28
2022-12-03T20:41:59.198Z,30.34
2022-12-03T21:01:59.313Z,30.35
2022-12-03T21:21:59.247Z,30.34
2022-12-03T21:42:19.542Z,30.3
2022-12-03T22:01:59.241Z,30.3
2022-12-03T22:21:59.142Z,30.26
2022-12-03T22:41:59.158Z,30.24
2022-12-03T23:01:59.162Z,30.2
2022-12-03T23:21:59.167Z,30.21
2022-12-03T23:41:58.515Z,30.2
